sensor_id;sensor_type;location;lat;lon;timestamp;pressure;altitude;pressure_sealevel;temperature;humidity
12471;BME280;36499;46.484;13.832;2023-02-28T00:01:54;93606.38;;;0.80;70.27
12471;BME280;36499;46.484;13.832;2023-02-28T00:04:21;93605.13;;;0.84;70.76
12471;BME280;36499;46.484;13.832;2023-02-28T00:06:48;93603.91;;;0.88;70.91
12471;BME280;36499;46.484;13.832;2023-02-28T00:09:15;93603.47;;;0.93;70.35
12471;BME280;36499;46.484;13.832;2023-02-28T00:11:43;93609.72;;;0.90;70.75
12471;BME280;36499;46.484;13.832;2023-02-28T00:14:10;93611.31;;;0.91;70.39
12471;BME280;36499;46.484;13.832;2023-02-28T00:16:37;93611.19;;;0.93;70.47
12471;BME280;36499;46.484;13.832;2023-02-28T00:19:04;93613.16;;;0.99;70.90
12471;BME280;36499;46.484;13.832;2023-02-28T00:21:31;93609.00;;;0.98;70.55
12471;BME280;36499;46.484;13.832;2023-02-28T00:23:58;93612.38;;;0.99;70.21
12471;BME280;36499;46.484;13.832;2023-02-28T00:26:25;93619.81;;;0.92;70.30
12471;BME280;36499;46.484;13.832;2023-02-28T00:28:54;93616.84;;;0.96;70.08
12471;BME280;36499;46.484;13.832;2023-02-28T00:31:21;93617.22;;;1.02;70.19
12471;BME280;36499;46.484;13.832;2023-02-28T00:33:48;93628.16;;;1.04;70.21
12471;BME280;36499;46.484;13.832;2023-02-28T00:36:16;93613.44;;;1.06;70.08
12471;BME280;36499;46.484;13.832;2023-02-28T00:38:43;93613.56;;;1.04;69.94
12471;BME280;36499;46.484;13.832;2023-02-28T00:41:10;93618.56;;;1.06;70.36
12471;BME280;36499;46.484;13.832;2023-02-28T00:43:38;93618.56;;;1.06;70.01
12471;BME280;36499;46.484;13.832;2023-02-28T00:46:08;93613.28;;;1.07;69.48
12471;BME280;36499;46.484;13.832;2023-02-28T00:48:35;93606.44;;;0.98;70.42
12471;BME280;36499;46.484;13.832;2023-02-28T00:51:03;93606.66;;;1.05;70.31
12471;BME280;36499;46.484;13.832;2023-02-28T00:53:30;93610.19;;;1.04;69.57
12471;BME280;36499;46.484;13.832;2023-02-28T00:55:58;93610.53;;;0.91;70.36
12471;BME280;36499;46.484;13.832;2023-02-28T00:58:25;93600.63;;;0.96;69.90
12471;BME280;36499;46.484;13.832;2023-02-28T01:00:53;93610.91;;;0.96;70.07
12471;BME280;36499;46.484;13.832;2023-02-28T01:03:22;93604.00;;;0.96;70.22
12471;BME280;36499;46.484;13.832;2023-02-28T01:05:50;93608.75;;;0.91;70.55
12471;BME280;36499;46.484;13.832;2023-02-28T01:08:19;93619.47;;;0.87;70.55
12471;BME280;36499;46.484;13.832;2023-02-28T01:10:46;93615.13;;;0.87;70.32
12471;BME280;36499;46.484;13.832;2023-02-28T01:13:13;93612.56;;;0.87;70.36
12471;BME280;36499;46.484;13.832;2023-02-28T01:15:46;93615.50;;;0.92;70.14
12471;BME280;36499;46.484;13.832;2023-02-28T01:18:15;93622.38;;;0.92;70.00
12471;BME280;36499;46.484;13.832;2023-02-28T01:20:44;93624.16;;;0.91;69.54
12471;BME280;36499;46.484;13.832;2023-02-28T01:23:11;93617.19;;;0.74;68.84
12471;BME280;36499;46.484;13.832;2023-02-28T01:25:39;93625.28;;;0.33;68.67
12471;BME280;36499;46.484;13.832;2023-02-28T01:28:06;93620.41;;;0.49;68.14
12471;BME280;36499;46.484;13.832;2023-02-28T01:30:33;93618.50;;;0.51;68.12
12471;BME280;36499;46.484;13.832;2023-02-28T01:33:01;93614.47;;;0.48;68.29
12471;BME280;36499;46.484;13.832;2023-02-28T01:35:28;93618.53;;;0.32;68.84
12471;BME280;36499;46.484;13.832;2023-02-28T01:37:56;93621.63;;;0.35;68.84
12471;BME280;36499;46.484;13.832;2023-02-28T01:40:23;93622.03;;;0.31;68.71
12471;BME280;36499;46.484;13.832;2023-02-28T01:42:50;93623.78;;;0.40;68.16
12471;BME280;36499;46.484;13.832;2023-02-28T01:45:23;93616.34;;;0.46;67.68
12471;BME280;36499;46.484;13.832;2023-02-28T01:47:55;93615.28;;;0.49;67.82
12471;BME280;36499;46.484;13.832;2023-02-28T01:50:28;93612.59;;;0.31;68.08
12471;BME280;36499;46.484;13.832;2023-02-28T01:53:03;93609.34;;;0.39;68.35
12471;BME280;36499;46.484;13.832;2023-02-28T01:55:32;93616.75;;;0.42;68.15
12471;BME280;36499;46.484;13.832;2023-02-28T01:58:04;93619.88;;;0.45;68.39
12471;BME280;36499;46.484;13.832;2023-02-28T02:00:35;93616.75;;;0.42;68.39
12471;BME280;36499;46.484;13.832;2023-02-28T02:03:08;93621.34;;;0.38;68.53
12471;BME280;36499;46.484;13.832;2023-02-28T02:05:39;93621.09;;;0.32;68.52
12471;BME280;36499;46.484;13.832;2023-02-28T02:08:12;93611.13;;;0.29;68.70
12471;BME280;36499;46.484;13.832;2023-02-28T02:10:43;93618.41;;;0.24;68.95
12471;BME280;36499;46.484;13.832;2023-02-28T02:13:42;93624.66;;;-0.08;69.95
12471;BME280;36499;46.484;13.832;2023-02-28T02:16:31;93623.56;;;0.05;69.60
12471;BME280;36499;46.484;13.832;2023-02-28T02:19:15;93613.84;;;0.18;69.17
12471;BME280;36499;46.484;13.832;2023-02-28T02:22:34;93618.03;;;0.19;69.29
12471;BME280;36499;46.484;13.832;2023-02-28T02:25:26;93623.00;;;0.30;68.88
12471;BME280;36499;46.484;13.832;2023-02-28T02:28:30;93624.75;;;0.29;69.14
12471;BME280;36499;46.484;13.832;2023-02-28T02:34:45;93618.69;;;0.21;68.99
12471;BME280;36499;46.484;13.832;2023-02-28T02:37:26;93625.19;;;0.15;69.09
12471;BME280;36499;46.484;13.832;2023-02-28T02:40:05;93625.03;;;0.26;68.75
12471;BME280;36499;46.484;13.832;2023-02-28T02:42:46;93625.56;;;0.20;68.75
12471;BME280;36499;46.484;13.832;2023-02-28T02:45:22;93624.38;;;0.05;69.33
12471;BME280;36499;46.484;13.832;2023-02-28T02:47:51;93621.56;;;-0.02;69.84
12471;BME280;36499;46.484;13.832;2023-02-28T02:50:27;93622.91;;;0.03;69.37
12471;BME280;36499;46.484;13.832;2023-02-28T02:53:00;93615.75;;;0.06;69.44
12471;BME280;36499;46.484;13.832;2023-02-28T02:55:34;93623.03;;;0.01;69.49
12471;BME280;36499;46.484;13.832;2023-02-28T02:58:08;93621.84;;;-0.05;69.74
12471;BME280;36499;46.484;13.832;2023-02-28T03:00:42;93625.06;;;-0.03;69.70
12471;BME280;36499;46.484;13.832;2023-02-28T03:03:12;93619.53;;;0.02;69.15
12471;BME280;36499;46.484;13.832;2023-02-28T03:05:47;93618.72;;;0.11;69.12
12471;BME280;36499;46.484;13.832;2023-02-28T03:08:16;93616.56;;;0.07;69.07
12471;BME280;36499;46.484;13.832;2023-02-28T03:10:46;93620.47;;;0.11;69.00
12471;BME280;36499;46.484;13.832;2023-02-28T03:13:41;93621.16;;;0.03;69.21
12471;BME280;36499;46.484;13.832;2023-02-28T03:16:33;93624.09;;;0.08;69.29
12471;BME280;36499;46.484;13.832;2023-02-28T03:19:34;93627.50;;;-0.01;69.34
12471;BME280;36499;46.484;13.832;2023-02-28T03:22:27;93625.47;;;0.03;69.37
12471;BME280;36499;46.484;13.832;2023-02-28T03:25:06;93625.88;;;0.08;69.23
12471;BME280;36499;46.484;13.832;2023-02-28T03:27:41;93633.81;;;0.14;68.96
12471;BME280;36499;46.484;13.832;2023-02-28T03:30:17;93633.56;;;0.08;68.87
12471;BME280;36499;46.484;13.832;2023-02-28T03:32:56;93635.72;;;0.03;68.81
12471;BME280;36499;46.484;13.832;2023-02-28T03:35:29;93633.84;;;-0.05;69.28
12471;BME280;36499;46.484;13.832;2023-02-28T03:38:08;93637.34;;;-0.16;69.75
12471;BME280;36499;46.484;13.832;2023-02-28T03:40:45;93641.38;;;-0.13;69.92
12471;BME280;36499;46.484;13.832;2023-02-28T03:43:20;93644.38;;;-0.08;69.76
12471;BME280;36499;46.484;13.832;2023-02-28T03:45:51;93641.09;;;-0.29;70.75
12471;BME280;36499;46.484;13.832;2023-02-28T03:48:23;93645.16;;;-0.46;71.20
12471;BME280;36499;46.484;13.832;2023-02-28T03:50:55;93640.72;;;-0.25;69.98
12471;BME280;36499;46.484;13.832;2023-02-28T03:53:32;93649.63;;;-0.38;70.39
12471;BME280;36499;46.484;13.832;2023-02-28T03:56:08;93651.22;;;-0.37;70.81
12471;BME280;36499;46.484;13.832;2023-02-28T03:58:43;93646.63;;;-0.34;70.43
12471;BME280;36499;46.484;13.832;2023-02-28T04:01:20;93646.50;;;-0.23;70.48
12471;BME280;36499;46.484;13.832;2023-02-28T04:03:50;93659.44;;;-0.34;70.72
12471;BME280;36499;46.484;13.832;2023-02-28T04:06:20;93659.31;;;-0.32;71.06
12471;BME280;36499;46.484;13.832;2023-02-28T04:08:49;93664.56;;;-0.34;70.64
12471;BME280;36499;46.484;13.832;2023-02-28T04:11:22;93665.41;;;-0.24;70.86
12471;BME280;36499;46.484;13.832;2023-02-28T04:13:50;93668.19;;;-0.46;71.49
12471;BME280;36499;46.484;13.832;2023-02-28T04:16:18;93670.06;;;-0.48;71.13
12471;BME280;36499;46.484;13.832;2023-02-28T04:18:45;93668.59;;;-0.41;71.72
12471;BME280;36499;46.484;13.832;2023-02-28T04:21:13;93674.38;;;-0.49;71.78
12471;BME280;36499;46.484;13.832;2023-02-28T04:23:40;93671.84;;;-0.39;71.69
12471;BME280;36499;46.484;13.832;2023-02-28T04:26:08;93673.72;;;-0.41;71.55
12471;BME280;36499;46.484;13.832;2023-02-28T04:28:38;93660.09;;;-0.41;71.74
12471;BME280;36499;46.484;13.832;2023-02-28T04:31:05;93664.97;;;-0.38;71.60
12471;BME280;36499;46.484;13.832;2023-02-28T04:33:32;93664.44;;;-0.32;71.34
12471;BME280;36499;46.484;13.832;2023-02-28T04:36:02;93667.94;;;-0.43;71.81
12471;BME280;36499;46.484;13.832;2023-02-28T04:38:29;93657.78;;;-0.73;71.82
12471;BME280;36499;46.484;13.832;2023-02-28T04:40:58;93668.59;;;-0.51;72.58
12471;BME280;36499;46.484;13.832;2023-02-28T04:43:28;93673.56;;;-0.49;72.27
12471;BME280;36499;46.484;13.832;2023-02-28T04:45:56;93669.28;;;-0.39;72.15
12471;BME280;36499;46.484;13.832;2023-02-28T04:48:24;93671.47;;;-0.34;71.79
12471;BME280;36499;46.484;13.832;2023-02-28T04:50:51;93664.72;;;-0.35;72.25
12471;BME280;36499;46.484;13.832;2023-02-28T04:53:19;93667.91;;;-0.62;72.76
12471;BME280;36499;46.484;13.832;2023-02-28T04:55:46;93665.06;;;-0.69;72.71
12471;BME280;36499;46.484;13.832;2023-02-28T04:58:14;93662.66;;;-0.51;72.09
12471;BME280;36499;46.484;13.832;2023-02-28T05:00:43;93671.97;;;-0.50;71.56
12471;BME280;36499;46.484;13.832;2023-02-28T05:03:10;93669.78;;;-0.45;71.56
12471;BME280;36499;46.484;13.832;2023-02-28T05:05:37;93665.38;;;-0.43;70.83
12471;BME280;36499;46.484;13.832;2023-02-28T05:08:04;93663.59;;;-0.62;71.66
12471;BME280;36499;46.484;13.832;2023-02-28T05:10:31;93668.19;;;-0.46;70.87
12471;BME280;36499;46.484;13.832;2023-02-28T05:12:58;93674.41;;;-0.39;70.44
12471;BME280;36499;46.484;13.832;2023-02-28T05:15:25;93663.91;;;-0.36;70.50
12471;BME280;36499;46.484;13.832;2023-02-28T05:17:54;93668.06;;;-0.25;70.08
12471;BME280;36499;46.484;13.832;2023-02-28T05:20:21;93664.28;;;-0.40;70.04
12471;BME280;36499;46.484;13.832;2023-02-28T05:22:49;93662.81;;;-0.33;69.72
12471;BME280;36499;46.484;13.832;2023-02-28T05:25:19;93664.16;;;-0.29;69.13
12471;BME280;36499;46.484;13.832;2023-02-28T05:27:48;93671.44;;;-0.15;69.15
12471;BME280;36499;46.484;13.832;2023-02-28T05:30:16;93658.78;;;-0.07;69.14
12471;BME280;36499;46.484;13.832;2023-02-28T05:32:43;93666.59;;;-0.18;69.05
12471;BME280;36499;46.484;13.832;2023-02-28T05:35:12;93674.97;;;-0.16;68.81
12471;BME280;36499;46.484;13.832;2023-02-28T05:37:39;93673.22;;;-0.16;68.66
12471;BME280;36499;46.484;13.832;2023-02-28T05:40:08;93682.25;;;-0.02;68.08
12471;BME280;36499;46.484;13.832;2023-02-28T05:42:37;93673.47;;;0.00;68.23
12471;BME280;36499;46.484;13.832;2023-02-28T05:45:06;93680.38;;;0.10;67.96
12471;BME280;36499;46.484;13.832;2023-02-28T05:47:34;93683.84;;;0.09;68.22
12471;BME280;36499;46.484;13.832;2023-02-28T05:50:02;93689.53;;;0.03;68.11
12471;BME280;36499;46.484;13.832;2023-02-28T05:52:31;93694.53;;;0.14;68.17
12471;BME280;36499;46.484;13.832;2023-02-28T05:54:58;93691.28;;;0.02;68.20
12471;BME280;36499;46.484;13.832;2023-02-28T05:57:25;93691.44;;;0.10;67.75
12471;BME280;36499;46.484;13.832;2023-02-28T05:59:52;93693.59;;;0.15;67.64
12471;BME280;36499;46.484;13.832;2023-02-28T06:02:19;93703.31;;;0.11;67.73
12471;BME280;36499;46.484;13.832;2023-02-28T06:04:46;93704.78;;;0.14;68.07
12471;BME280;36499;46.484;13.832;2023-02-28T06:07:13;93708.41;;;0.02;67.65
12471;BME280;36499;46.484;13.832;2023-02-28T06:09:42;93714.63;;;-0.01;67.48
12471;BME280;36499;46.484;13.832;2023-02-28T06:12:10;93719.22;;;0.15;67.52
12471;BME280;36499;46.484;13.832;2023-02-28T06:14:37;93714.22;;;0.23;67.21
12471;BME280;36499;46.484;13.832;2023-02-28T06:17:04;93725.69;;;0.19;66.79
12471;BME280;36499;46.484;13.832;2023-02-28T06:19:31;93725.69;;;0.19;66.81
12471;BME280;36499;46.484;13.832;2023-02-28T06:21:59;93726.63;;;0.18;67.17
12471;BME280;36499;46.484;13.832;2023-02-28T06:24:26;93730.69;;;0.20;67.22
12471;BME280;36499;46.484;13.832;2023-02-28T06:26:56;93734.31;;;0.27;66.97
12471;BME280;36499;46.484;13.832;2023-02-28T06:29:25;93736.47;;;0.03;66.99
12471;BME280;36499;46.484;13.832;2023-02-28T06:31:52;93736.88;;;0.18;67.31
12471;BME280;36499;46.484;13.832;2023-02-28T06:34:19;93738.22;;;0.12;66.87
12471;BME280;36499;46.484;13.832;2023-02-28T06:36:46;93737.53;;;0.20;67.17
12471;BME280;36499;46.484;13.832;2023-02-28T06:39:13;93732.97;;;0.14;66.89
12471;BME280;36499;46.484;13.832;2023-02-28T06:41:40;93743.38;;;0.22;66.83
12471;BME280;36499;46.484;13.832;2023-02-28T06:44:13;93744.31;;;0.40;66.31
12471;BME280;36499;46.484;13.832;2023-02-28T06:46:41;93744.72;;;0.45;66.27
12471;BME280;36499;46.484;13.832;2023-02-28T06:49:09;93742.00;;;0.46;66.06
12471;BME280;36499;46.484;13.832;2023-02-28T06:51:38;93737.00;;;0.35;65.73
12471;BME280;36499;46.484;13.832;2023-02-28T06:54:06;93752.94;;;0.48;66.06
12471;BME280;36499;46.484;13.832;2023-02-28T06:56:34;93751.84;;;0.51;65.99
12471;BME280;36499;46.484;13.832;2023-02-28T06:59:02;93748.19;;;0.54;65.67
12471;BME280;36499;46.484;13.832;2023-02-28T07:01:31;93750.66;;;0.45;65.48
12471;BME280;36499;46.484;13.832;2023-02-28T07:03:59;93759.28;;;0.44;65.43
12471;BME280;36499;46.484;13.832;2023-02-28T07:06:27;93759.00;;;0.47;65.07
12471;BME280;36499;46.484;13.832;2023-02-28T07:08:54;93758.34;;;0.55;65.63
12471;BME280;36499;46.484;13.832;2023-02-28T07:11:24;93756.72;;;0.64;65.92
12471;BME280;36499;46.484;13.832;2023-02-28T07:13:51;93756.72;;;0.54;65.65
12471;BME280;36499;46.484;13.832;2023-02-28T07:16:18;93756.97;;;0.51;66.00
12471;BME280;36499;46.484;13.832;2023-02-28T07:18:47;93760.78;;;0.57;65.79
12471;BME280;36499;46.484;13.832;2023-02-28T07:21:15;93758.88;;;0.59;65.86
12471;BME280;36499;46.484;13.832;2023-02-28T07:23:42;93759.41;;;0.62;65.45
12471;BME280;36499;46.484;13.832;2023-02-28T07:26:13;93758.34;;;0.65;65.30
12471;BME280;36499;46.484;13.832;2023-02-28T07:28:41;93753.75;;;0.68;65.22
12471;BME280;36499;46.484;13.832;2023-02-28T07:31:10;93753.06;;;0.66;64.94
12471;BME280;36499;46.484;13.832;2023-02-28T07:33:37;93756.56;;;0.75;65.20
12471;BME280;36499;46.484;13.832;2023-02-28T07:36:09;93763.16;;;0.77;64.45
12471;BME280;36499;46.484;13.832;2023-02-28T07:38:39;93761.94;;;0.81;64.46
12471;BME280;36499;46.484;13.832;2023-02-28T07:41:06;93755.59;;;0.85;64.40
12471;BME280;36499;46.484;13.832;2023-02-28T07:43:34;93751.25;;;0.95;64.03
12471;BME280;36499;46.484;13.832;2023-02-28T07:46:04;93765.16;;;0.93;63.76
12471;BME280;36499;46.484;13.832;2023-02-28T07:48:31;93761.25;;;0.99;63.86
12471;BME280;36499;46.484;13.832;2023-02-28T07:51:00;93763.13;;;1.06;63.01
12471;BME280;36499;46.484;13.832;2023-02-28T07:53:29;93763.66;;;1.10;63.00
12471;BME280;36499;46.484;13.832;2023-02-28T07:55:57;93763.63;;;1.19;63.02
12471;BME280;36499;46.484;13.832;2023-02-28T07:58:25;93768.22;;;1.25;64.25
12471;BME280;36499;46.484;13.832;2023-02-28T08:00:53;93770.84;;;1.33;64.82
12471;BME280;36499;46.484;13.832;2023-02-28T08:03:22;93762.75;;;1.38;65.19
12471;BME280;36499;46.484;13.832;2023-02-28T08:05:50;93763.38;;;1.50;64.38
12471;BME280;36499;46.484;13.832;2023-02-28T08:08:18;93772.94;;;1.57;64.38
12471;BME280;36499;46.484;13.832;2023-02-28T08:10:46;93769.72;;;1.55;63.79
12471;BME280;36499;46.484;13.832;2023-02-28T08:13:13;93771.88;;;1.60;62.88
12471;BME280;36499;46.484;13.832;2023-02-28T08:15:41;93768.72;;;1.66;62.99
12471;BME280;36499;46.484;13.832;2023-02-28T08:18:09;93776.31;;;1.58;61.30
12471;BME280;36499;46.484;13.832;2023-02-28T08:20:36;93774.28;;;1.61;62.07
12471;BME280;36499;46.484;13.832;2023-02-28T08:23:03;93776.72;;;1.63;61.57
12471;BME280;36499;46.484;13.832;2023-02-28T08:25:30;93779.00;;;1.66;61.21
12471;BME280;36499;46.484;13.832;2023-02-28T08:27:58;93788.59;;;1.64;60.69
12471;BME280;36499;46.484;13.832;2023-02-28T08:30:25;93783.91;;;1.50;60.41
12471;BME280;36499;46.484;13.832;2023-02-28T08:32:52;93792.16;;;1.53;60.65
12471;BME280;36499;46.484;13.832;2023-02-28T08:35:20;93788.00;;;1.52;60.59
12471;BME280;36499;46.484;13.832;2023-02-28T08:37:48;93790.38;;;1.63;60.53
12471;BME280;36499;46.484;13.832;2023-02-28T08:40:16;93797.50;;;1.69;61.28
12471;BME280;36499;46.484;13.832;2023-02-28T08:42:43;93803.16;;;1.73;60.85
12471;BME280;36499;46.484;13.832;2023-02-28T08:45:14;93801.06;;;1.59;60.10
12471;BME280;36499;46.484;13.832;2023-02-28T08:47:41;93794.72;;;1.53;60.49
12471;BME280;36499;46.484;13.832;2023-02-28T08:50:09;93800.53;;;1.55;59.78
12471;BME280;36499;46.484;13.832;2023-02-28T08:52:36;93800.25;;;1.58;60.74
12471;BME280;36499;46.484;13.832;2023-02-28T08:55:05;93798.91;;;1.54;60.52
12471;BME280;36499;46.484;13.832;2023-02-28T08:57:32;93801.09;;;1.49;60.44
12471;BME280;36499;46.484;13.832;2023-02-28T08:59:59;93801.88;;;1.59;59.98
12471;BME280;36499;46.484;13.832;2023-02-28T09:02:31;93799.97;;;1.61;60.52
12471;BME280;36499;46.484;13.832;2023-02-28T09:04:58;93804.00;;;1.64;60.30
12471;BME280;36499;46.484;13.832;2023-02-28T09:07:25;93805.56;;;1.47;60.68
12471;BME280;36499;46.484;13.832;2023-02-28T09:09:52;93808.66;;;1.51;60.75
12471;BME280;36499;46.484;13.832;2023-02-28T09:12:25;93813.63;;;1.62;60.27
12471;BME280;36499;46.484;13.832;2023-02-28T09:14:53;93805.09;;;1.71;59.66
12471;BME280;36499;46.484;13.832;2023-02-28T09:17:20;93805.59;;;1.74;60.25
12471;BME280;36499;46.484;13.832;2023-02-28T09:19:49;93815.44;;;1.52;60.90
12471;BME280;36499;46.484;13.832;2023-02-28T09:22:16;93806.22;;;1.59;60.51
12471;BME280;36499;46.484;13.832;2023-02-28T09:24:43;93813.00;;;1.50;60.31
12471;BME280;36499;46.484;13.832;2023-02-28T09:27:11;93809.31;;;1.62;60.16
12471;BME280;36499;46.484;13.832;2023-02-28T09:29:38;93806.88;;;1.61;59.92
12471;BME280;36499;46.484;13.832;2023-02-28T09:32:05;93813.88;;;1.68;59.78
12471;BME280;36499;46.484;13.832;2023-02-28T09:34:32;93818.97;;;1.41;60.58
12471;BME280;36499;46.484;13.832;2023-02-28T09:37:01;93809.94;;;1.74;59.89
12471;BME280;36499;46.484;13.832;2023-02-28T09:39:28;93812.06;;;1.51;60.26
12471;BME280;36499;46.484;13.832;2023-02-28T09:41:57;93815.78;;;1.66;60.55
12471;BME280;36499;46.484;13.832;2023-02-28T09:44:31;93809.72;;;1.58;60.02
12471;BME280;36499;46.484;13.832;2023-02-28T09:47:11;93817.53;;;1.66;59.65
12471;BME280;36499;46.484;13.832;2023-02-28T09:49:44;93813.41;;;1.82;59.99
12471;BME280;36499;46.484;13.832;2023-02-28T09:52:19;93814.06;;;1.84;59.68
12471;BME280;36499;46.484;13.832;2023-02-28T09:54:47;93818.00;;;1.79;59.80
12471;BME280;36499;46.484;13.832;2023-02-28T09:57:31;93818.63;;;1.90;59.77
12471;BME280;36499;46.484;13.832;2023-02-28T10:00:10;93820.97;;;1.84;59.84
12471;BME280;36499;46.484;13.832;2023-02-28T10:03:04;93819.72;;;1.88;60.05
12471;BME280;36499;46.484;13.832;2023-02-28T10:05:37;93822.00;;;1.91;59.34
12471;BME280;36499;46.484;13.832;2023-02-28T10:08:13;93822.63;;;2.03;59.55
12471;BME280;36499;46.484;13.832;2023-02-28T10:10:44;93828.03;;;2.09;58.98
12471;BME280;36499;46.484;13.832;2023-02-28T10:13:22;93832.38;;;2.09;59.08
12471;BME280;36499;46.484;13.832;2023-02-28T10:15:55;93829.72;;;1.91;59.07
12471;BME280;36499;46.484;13.832;2023-02-28T10:18:30;93827.22;;;2.09;59.01
12471;BME280;36499;46.484;13.832;2023-02-28T10:20:58;93827.84;;;2.20;58.44
12471;BME280;36499;46.484;13.832;2023-02-28T10:23:33;93829.78;;;2.09;58.67
12471;BME280;36499;46.484;13.832;2023-02-28T10:26:10;93832.16;;;2.20;58.74
12471;BME280;36499;46.484;13.832;2023-02-28T10:28:39;93827.13;;;2.28;58.63
12471;BME280;36499;46.484;13.832;2023-02-28T10:31:11;93827.38;;;2.25;57.80
12471;BME280;36499;46.484;13.832;2023-02-28T10:33:42;93825.09;;;2.22;57.81
12471;BME280;36499;46.484;13.832;2023-02-28T10:36:16;93830.41;;;2.20;58.60
12471;BME280;36499;46.484;13.832;2023-02-28T10:38:47;93836.34;;;2.21;58.39
12471;BME280;36499;46.484;13.832;2023-02-28T10:41:16;93828.78;;;2.19;58.22
12471;BME280;36499;46.484;13.832;2023-02-28T10:43:44;93822.19;;;2.34;58.73
12471;BME280;36499;46.484;13.832;2023-02-28T10:46:15;93826.09;;;2.38;58.92
12471;BME280;36499;46.484;13.832;2023-02-28T10:49:02;93825.78;;;2.24;58.68
12471;BME280;36499;46.484;13.832;2023-02-28T10:51:37;93827.25;;;2.26;58.76
12471;BME280;36499;46.484;13.832;2023-02-28T10:54:16;93817.19;;;2.33;58.88
12471;BME280;36499;46.484;13.832;2023-02-28T10:56:43;93824.88;;;2.15;59.58
12471;BME280;36499;46.484;13.832;2023-02-28T10:59:30;93827.38;;;2.25;58.85
12471;BME280;36499;46.484;13.832;2023-02-28T11:01:57;93817.78;;;2.27;59.14
12471;BME280;36499;46.484;13.832;2023-02-28T11:04:35;93822.53;;;2.22;59.12
12471;BME280;36499;46.484;13.832;2023-02-28T11:07:17;93817.56;;;2.38;59.63
12471;BME280;36499;46.484;13.832;2023-02-28T11:09:48;93816.16;;;2.43;59.06
12471;BME280;36499;46.484;13.832;2023-02-28T11:12:26;93811.19;;;2.42;58.82
12471;BME280;36499;46.484;13.832;2023-02-28T11:14:58;93808.38;;;2.35;58.61
12471;BME280;36499;46.484;13.832;2023-02-28T11:17:30;93807.94;;;2.40;58.39
12471;BME280;36499;46.484;13.832;2023-02-28T11:20:01;93807.13;;;2.57;58.88
12471;BME280;36499;46.484;13.832;2023-02-28T11:22:35;93803.63;;;2.58;57.40
12471;BME280;36499;46.484;13.832;2023-02-28T11:25:12;93806.19;;;2.58;57.58
12471;BME280;36499;46.484;13.832;2023-02-28T11:27:47;93809.72;;;2.39;57.94
12471;BME280;36499;46.484;13.832;2023-02-28T11:30:29;93803.38;;;2.34;59.20
12471;BME280;36499;46.484;13.832;2023-02-28T11:32:57;93800.28;;;2.48;58.95
12471;BME280;36499;46.484;13.832;2023-02-28T11:35:29;93804.19;;;2.52;57.91
12471;BME280;36499;46.484;13.832;2023-02-28T11:37:57;93793.56;;;2.47;58.24
12471;BME280;36499;46.484;13.832;2023-02-28T11:40:38;93788.63;;;2.54;59.12
12471;BME280;36499;46.484;13.832;2023-02-28T11:43:26;93796.84;;;2.57;58.74
12471;BME280;36499;46.484;13.832;2023-02-28T11:46:10;93796.13;;;2.47;57.82
12471;BME280;36499;46.484;13.832;2023-02-28T11:48:51;93781.81;;;2.70;58.07
12471;BME280;36499;46.484;13.832;2023-02-28T11:51:29;93790.72;;;2.40;59.11
12471;BME280;36499;46.484;13.832;2023-02-28T11:54:21;93792.00;;;2.54;59.04
12471;BME280;36499;46.484;13.832;2023-02-28T11:56:57;93790.88;;;2.57;58.52
12471;BME280;36499;46.484;13.832;2023-02-28T11:59:46;93782.28;;;2.66;58.37
12471;BME280;36499;46.484;13.832;2023-02-28T12:02:26;93774.09;;;2.70;58.23
12471;BME280;36499;46.484;13.832;2023-02-28T12:05:18;93768.91;;;2.62;57.75
12471;BME280;36499;46.484;13.832;2023-02-28T12:08:01;93772.28;;;2.63;57.19
12471;BME280;36499;46.484;13.832;2023-02-28T12:10:38;93772.75;;;2.58;57.23
12471;BME280;36499;46.484;13.832;2023-02-28T12:13:21;93772.50;;;2.69;57.72
12471;BME280;36499;46.484;13.832;2023-02-28T12:16:44;93764.03;;;2.59;57.27
12471;BME280;36499;46.484;13.832;2023-02-28T12:19:20;93763.69;;;2.54;57.64
12471;BME280;36499;46.484;13.832;2023-02-28T12:22:21;93760.47;;;2.96;57.11
12471;BME280;36499;46.484;13.832;2023-02-28T12:25:38;93753.56;;;2.96;57.89
12471;BME280;36499;46.484;13.832;2023-02-28T12:28:17;93756.72;;;2.90;57.31
12471;BME280;36499;46.484;13.832;2023-02-28T12:31:00;93761.84;;;3.08;56.72
12471;BME280;36499;46.484;13.832;2023-02-28T12:33:35;93759.94;;;3.10;57.01
12471;BME280;36499;46.484;13.832;2023-02-28T12:36:10;93759.69;;;3.21;57.24
12471;BME280;36499;46.484;13.832;2023-02-28T12:38:43;93749.00;;;3.16;57.38
12471;BME280;36499;46.484;13.832;2023-02-28T12:41:15;93754.47;;;3.13;57.15
12471;BME280;36499;46.484;13.832;2023-02-28T12:43:52;93747.25;;;2.90;58.18
12471;BME280;36499;46.484;13.832;2023-02-28T12:46:29;93747.84;;;3.10;57.65
12471;BME280;36499;46.484;13.832;2023-02-28T12:49:04;93743.16;;;3.06;58.48
12471;BME280;36499;46.484;13.832;2023-02-28T12:51:34;93745.09;;;3.04;57.59
12471;BME280;36499;46.484;13.832;2023-02-28T12:54:16;93735.22;;;3.25;57.04
12471;BME280;36499;46.484;13.832;2023-02-28T12:56:54;93738.75;;;3.24;57.52
12471;BME280;36499;46.484;13.832;2023-02-28T12:59:33;93739.22;;;2.94;56.92
12471;BME280;36499;46.484;13.832;2023-02-28T13:02:33;93738.13;;;2.96;57.20
12471;BME280;36499;46.484;13.832;2023-02-28T13:09:01;93731.91;;;3.07;58.46
12471;BME280;36499;46.484;13.832;2023-02-28T13:11:32;93729.41;;;2.97;58.61
12471;BME280;36499;46.484;13.832;2023-02-28T13:14:03;93728.50;;;3.06;57.53
12471;BME280;36499;46.484;13.832;2023-02-28T13:17:02;93720.38;;;2.93;57.41
12471;BME280;36499;46.484;13.832;2023-02-28T13:19:33;93726.06;;;2.97;56.73
12471;BME280;36499;46.484;13.832;2023-02-28T13:22:02;93720.63;;;2.82;56.65
12471;BME280;36499;46.484;13.832;2023-02-28T13:24:46;93719.09;;;2.71;57.06
12471;BME280;36499;46.484;13.832;2023-02-28T13:27:36;93717.91;;;2.83;58.02
12471;BME280;36499;46.484;13.832;2023-02-28T13:33:35;93713.25;;;3.13;57.04
12471;BME280;36499;46.484;13.832;2023-02-28T13:38:56;93698.06;;;3.35;56.98